createdAt,value
2018-06-08T00:00:59.762Z,99.90
2018-06-08T00:03:28.184Z,99.90
2018-06-08T00:05:57.259Z,99.90
2018-06-08T00:08:26.656Z,99.90
2018-06-08T00:10:55.740Z,99.90
2018-06-08T00:13:24.145Z,99.90
2018-06-08T00:15:52.555Z,99.90
2018-06-08T00:18:20.978Z,99.90
2018-06-08T00:20:49.621Z,99.90
2018-06-08T00:23:18.814Z,99.90
2018-06-08T00:25:47.216Z,99.90
2018-06-08T00:28:16.005Z,99.90
2018-06-08T00:30:44.668Z,99.90
2018-06-08T00:33:13.203Z,99.90
2018-06-08T00:35:43.024Z,99.90
2018-06-08T00:38:11.412Z,99.90
2018-06-08T00:40:39.854Z,99.90
2018-06-08T00:43:09.101Z,99.90
2018-06-08T00:45:37.525Z,99.90
2018-06-08T00:48:06.419Z,99.90
2018-06-08T00:50:35.244Z,99.90
2018-06-08T00:53:03.682Z,99.90
2018-06-08T00:55:32.087Z,99.90
2018-06-08T00:58:00.577Z,99.90
2018-06-08T01:00:29.001Z,99.90
2018-06-08T01:02:57.923Z,99.90
2018-06-08T01:05:26.849Z,99.90
2018-06-08T01:07:55.565Z,99.90
2018-06-08T01:10:24.309Z,99.90
2018-06-08T01:12:53.169Z,99.90
2018-06-08T01:15:22.280Z,99.90
2018-06-08T01:17:50.705Z,99.90
2018-06-08T01:20:19.125Z,99.90
2018-06-08T01:22:48.025Z,99.90
2018-06-08T01:25:16.569Z,99.90
2018-06-08T01:27:45.602Z,99.90
2018-06-08T01:30:14.911Z,99.90
2018-06-08T01:32:43.660Z,99.90
2018-06-08T01:37:40.541Z,99.90
2018-06-08T01:40:09.440Z,99.90
2018-06-08T01:42:38.132Z,99.90
2018-06-08T01:45:07.830Z,99.90
2018-06-08T01:47:36.980Z,99.90
2018-06-08T01:50:05.449Z,99.90
2018-06-08T01:52:33.861Z,99.90
2018-06-08T01:55:02.673Z,99.90
2018-06-08T01:57:31.744Z,99.90
2018-06-08T02:00:00.184Z,99.90
2018-06-08T02:02:31.416Z,99.90
2018-06-08T02:05:00.134Z,99.90
2018-06-08T02:07:28.636Z,99.90
2018-06-08T02:09:57.060Z,99.90
2018-06-08T02:12:25.492Z,99.90
2018-06-08T02:14:53.913Z,99.90
2018-06-08T02:17:22.365Z,99.90
2018-06-08T02:19:51.197Z,99.90
2018-06-08T02:22:19.777Z,99.90
2018-06-08T02:24:48.514Z,99.90
2018-06-08T02:27:19.192Z,99.90
2018-06-08T02:29:47.956Z,99.90
2018-06-08T02:32:17.236Z,99.90
2018-06-08T02:34:46.329Z,99.90
2018-06-08T02:37:15.371Z,99.90
2018-06-08T02:42:12.181Z,99.90
2018-06-08T02:44:41.285Z,99.90
2018-06-08T02:47:10.074Z,99.90
2018-06-08T02:49:38.456Z,99.90
2018-06-08T02:52:13.334Z,99.90
2018-06-08T02:54:42.053Z,99.90
2018-06-08T02:57:10.518Z,99.90
2018-06-08T02:59:38.938Z,99.90
2018-06-08T03:02:07.393Z,99.90
2018-06-08T03:04:36.472Z,99.90
2018-06-08T03:07:05.613Z,99.90
2018-06-08T03:09:34.705Z,99.90
2018-06-08T03:12:04.025Z,99.90
2018-06-08T03:14:32.477Z,99.90
2018-06-08T03:17:01.307Z,99.90
2018-06-08T03:19:29.837Z,99.90
2018-06-08T03:21:58.598Z,99.90
2018-06-08T03:24:28.101Z,99.90
2018-06-08T03:29:25.043Z,99.90
2018-06-08T03:31:54.217Z,99.90
2018-06-08T03:34:22.847Z,99.90
2018-06-08T03:46:41.402Z,99.90
2018-06-08T03:49:10.144Z,99.90
2018-06-08T03:51:38.928Z,99.90
2018-06-08T03:54:07.992Z,99.90
2018-06-08T03:56:37.184Z,99.90
2018-06-08T03:59:05.807Z,99.90
2018-06-08T04:01:34.633Z,99.90
2018-06-08T04:06:31.132Z,99.90
2018-06-08T04:08:59.589Z,99.90
2018-06-08T04:11:28.420Z,99.90
2018-06-08T04:13:57.280Z,99.90
2018-06-08T04:16:25.699Z,99.90
2018-06-08T04:18:54.809Z,99.90
2018-06-08T04:21:23.225Z,99.90
2018-06-08T04:23:53.196Z,99.90
2018-06-08T04:28:50.923Z,99.90
2018-06-08T04:31:19.724Z,99.90
2018-06-08T04:33:48.539Z,99.90
2018-06-08T04:36:17.709Z,99.90
2018-06-08T04:38:46.731Z,99.90
2018-06-08T04:41:15.771Z,99.90
2018-06-08T04:43:44.200Z,99.90
2018-06-08T04:46:13.270Z,99.90
2018-06-08T04:48:41.733Z,99.90
2018-06-08T04:51:10.759Z,99.90
2018-06-08T04:53:39.265Z,99.90
2018-06-08T04:56:08.229Z,99.90
2018-06-08T04:58:36.688Z,99.90
2018-06-08T05:01:05.137Z,99.90
2018-06-08T05:06:02.833Z,99.90
2018-06-08T05:08:31.271Z,99.90
2018-06-08T05:10:59.845Z,99.90
2018-06-08T05:15:56.998Z,99.90
2018-06-08T05:18:25.645Z,99.90
2018-06-08T05:20:54.181Z,99.90
2018-06-08T05:23:22.611Z,99.90
2018-06-08T05:25:51.902Z,99.90
2018-06-08T05:28:20.388Z,99.90
2018-06-08T05:30:49.764Z,99.90
2018-06-08T05:33:18.334Z,99.90
2018-06-08T05:35:46.753Z,99.90
2018-06-08T05:38:15.244Z,99.90
2018-06-08T05:40:43.697Z,99.90
2018-06-08T05:43:12.175Z,99.90
2018-06-08T05:45:40.602Z,99.90
2018-06-08T05:48:09.561Z,99.90
2018-06-08T05:50:38.366Z,99.90
2018-06-08T05:53:07.281Z,99.90
2018-06-08T05:55:36.058Z,99.90
2018-06-08T05:58:04.522Z,99.90
2018-06-08T06:00:33.281Z,99.90
2018-06-08T06:03:02.232Z,99.90
2018-06-08T06:05:30.653Z,99.90
2018-06-08T06:07:59.062Z,99.90
2018-06-08T06:10:28.189Z,99.90
2018-06-08T06:12:56.653Z,99.90
2018-06-08T06:15:25.067Z,99.90
2018-06-08T06:17:53.601Z,99.90
2018-06-08T06:20:22.111Z,99.90
2018-06-08T06:22:50.532Z,99.90
2018-06-08T06:25:18.953Z,99.90
2018-06-08T06:27:47.389Z,99.90
2018-06-08T06:30:16.116Z,99.90
2018-06-08T06:32:44.521Z,99.90
2018-06-08T06:35:13.064Z,99.90
2018-06-08T06:37:41.518Z,99.90
2018-06-08T06:40:10.921Z,99.90
2018-06-08T06:42:39.501Z,99.90
2018-06-08T06:45:08.011Z,99.90
2018-06-08T06:47:36.549Z,99.90
2018-06-08T06:50:05.252Z,99.90
2018-06-08T06:52:33.770Z,99.90
2018-06-08T06:55:02.730Z,99.90
2018-06-08T06:57:31.208Z,99.90
2018-06-08T07:00:00.129Z,99.90
2018-06-08T07:02:28.920Z,99.90
2018-06-08T07:04:57.886Z,99.90
2018-06-08T07:07:26.269Z,99.90
2018-06-08T07:09:54.736Z,99.90
2018-06-08T07:12:23.166Z,99.90
2018-06-08T07:14:52.426Z,99.90
2018-06-08T07:17:20.853Z,99.90
2018-06-08T07:19:49.892Z,99.90
2018-06-08T07:22:20.964Z,99.90
2018-06-08T07:24:50.805Z,99.90
2018-06-08T07:27:19.202Z,99.90
2018-06-08T07:29:47.632Z,99.90
2018-06-08T07:32:16.065Z,99.90
2018-06-08T07:34:44.778Z,99.90
2018-06-08T07:37:13.280Z,99.90
2018-06-08T07:39:41.769Z,99.90
2018-06-08T07:42:10.225Z,99.90
2018-06-08T07:44:38.969Z,99.90
2018-06-08T07:47:07.673Z,99.90
2018-06-08T07:49:36.103Z,99.90
2018-06-08T07:52:04.940Z,99.80
2018-06-08T07:54:34.072Z,96.00
2018-06-08T07:57:02.821Z,91.40
2018-06-08T07:59:31.796Z,83.10
2018-06-08T08:02:00.645Z,72.20
2018-06-08T08:04:29.158Z,77.10
2018-06-08T08:06:58.835Z,79.10
2018-06-08T08:09:27.550Z,82.10
2018-06-08T08:11:56.337Z,74.60
2018-06-08T08:14:24.824Z,78.70
2018-06-08T08:16:53.634Z,76.70
2018-06-08T08:19:22.050Z,75.20
2018-06-08T08:21:51.173Z,78.90
2018-06-08T08:24:20.040Z,73.50
2018-06-08T08:26:49.445Z,71.80
2018-06-08T08:29:17.864Z,75.30
2018-06-08T08:31:46.285Z,79.80
2018-06-08T08:34:14.815Z,79.80
2018-06-08T08:36:43.604Z,80.70
2018-06-08T08:39:12.102Z,83.50
2018-06-08T08:41:41.281Z,85.80
2018-06-08T08:44:10.957Z,87.80
2018-06-08T08:46:39.348Z,86.60
2018-06-08T08:49:08.980Z,88.70
2018-06-08T08:51:39.722Z,90.80
2018-06-08T08:54:09.001Z,90.30
2018-06-08T08:56:38.015Z,92.90
2018-06-08T08:59:06.440Z,94.10
2018-06-08T09:01:34.888Z,95.00
2018-06-08T09:04:03.565Z,94.90
2018-06-08T09:06:32.208Z,96.00
2018-06-08T09:09:00.947Z,96.40
2018-06-08T09:11:29.725Z,95.90
2018-06-08T09:13:58.444Z,97.60
2018-06-08T09:16:26.830Z,97.50
2018-06-08T09:18:56.009Z,97.70
2018-06-08T09:21:24.496Z,98.40
2018-06-08T09:23:52.965Z,98.80
2018-06-08T09:26:22.173Z,99.00
2018-06-08T09:28:51.366Z,99.90
2018-06-08T09:31:20.267Z,99.90
2018-06-08T09:33:49.034Z,99.90
2018-06-08T09:36:17.528Z,99.90
2018-06-08T09:38:45.913Z,99.90
2018-06-08T09:41:14.716Z,99.90
2018-06-08T09:43:43.228Z,99.90
2018-06-08T09:46:12.471Z,99.90
2018-06-08T09:48:40.839Z,99.90
2018-06-08T09:51:09.325Z,99.90
2018-06-08T09:53:38.312Z,99.90
2018-06-08T09:56:06.728Z,99.90
2018-06-08T09:58:35.148Z,99.90
2018-06-08T10:01:03.565Z,99.90
2018-06-08T10:03:32.440Z,99.90
2018-06-08T10:06:02.029Z,99.90
2018-06-08T10:08:31.093Z,99.90
2018-06-08T10:11:00.134Z,99.90
2018-06-08T10:13:28.596Z,99.90
2018-06-08T10:15:57.662Z,99.90
2018-06-08T10:18:26.172Z,99.90
2018-06-08T10:20:56.093Z,99.90
2018-06-08T10:23:24.758Z,99.90
2018-06-08T10:25:53.656Z,99.90
2018-06-08T10:28:22.602Z,99.90
2018-06-08T10:30:51.351Z,99.90
2018-06-08T10:33:20.487Z,99.90
2018-06-08T10:35:49.036Z,99.90
2018-06-08T10:38:17.537Z,99.90
2018-06-08T10:40:46.013Z,99.90
2018-06-08T10:43:14.377Z,99.90
2018-06-08T10:45:42.930Z,99.90
2018-06-08T10:48:11.598Z,99.90
2018-06-08T10:50:40.718Z,99.90
2018-06-08T10:53:10.121Z,99.90
2018-06-08T10:55:38.520Z,99.90
2018-06-08T10:58:07.088Z,99.90
2018-06-08T11:00:35.573Z,99.90
2018-06-08T11:03:04.243Z,99.90
2018-06-08T11:05:32.953Z,99.90
2018-06-08T11:08:01.776Z,99.90
2018-06-08T11:10:30.515Z,99.90
2018-06-08T11:13:00.386Z,99.90
2018-06-08T11:15:28.734Z,99.90
2018-06-08T11:17:58.037Z,99.90
2018-06-08T11:20:26.786Z,99.90
2018-06-08T11:22:55.242Z,99.90
2018-06-08T11:25:23.836Z,99.90
2018-06-08T11:27:52.661Z,99.90
2018-06-08T11:30:21.052Z,99.90
2018-06-08T11:32:49.525Z,99.90
2018-06-08T11:35:18.258Z,99.90
2018-06-08T11:37:46.722Z,99.90
2018-06-08T11:40:15.277Z,99.90
2018-06-08T11:55:43.776Z,99.90
2018-06-08T11:58:12.814Z,99.90
2018-06-08T12:00:41.238Z,99.90
2018-06-08T12:03:09.906Z,99.90
2018-06-08T12:05:38.306Z,99.90
2018-06-08T12:08:07.005Z,99.90
2018-06-08T12:10:35.430Z,99.90
2018-06-08T12:13:04.932Z,99.90
2018-06-08T12:15:33.481Z,99.90
2018-06-08T12:18:02.222Z,99.90
2018-06-08T12:20:30.757Z,99.90
2018-06-08T12:22:59.572Z,99.90
2018-06-08T12:25:28.400Z,99.90
2018-06-08T12:27:56.908Z,99.90
2018-06-08T12:30:25.781Z,99.90
2018-06-08T12:32:54.429Z,99.90
2018-06-08T12:35:22.850Z,99.90
2018-06-08T12:37:51.444Z,99.90
2018-06-08T12:40:19.956Z,99.90
2018-06-08T12:42:48.440Z,99.90
2018-06-08T12:45:17.662Z,99.90
2018-06-08T12:47:46.501Z,99.90
2018-06-08T12:50:14.981Z,99.90
2018-06-08T12:52:43.777Z,99.90
2018-06-08T12:55:12.260Z,99.90
2018-06-08T12:57:41.969Z,99.90
2018-06-08T13:00:10.477Z,99.90
2018-06-08T13:02:38.986Z,99.30
2018-06-08T13:05:07.853Z,99.90
2018-06-08T13:07:36.293Z,97.30
2018-06-08T13:10:04.823Z,98.50
2018-06-08T13:12:33.229Z,97.40
2018-06-08T13:15:02.394Z,97.10
2018-06-08T13:17:30.968Z,96.30
2018-06-08T13:19:59.518Z,97.10
2018-06-08T13:22:28.157Z,93.50
2018-06-08T13:24:56.838Z,80.80
2018-06-08T13:27:25.819Z,89.50
2018-06-08T13:29:54.676Z,90.50
2018-06-08T13:32:23.097Z,90.30
2018-06-08T13:34:51.528Z,91.50
2018-06-08T13:39:48.421Z,91.10
2018-06-08T13:42:17.253Z,90.10
2018-06-08T13:44:46.617Z,90.10
2018-06-08T13:47:15.694Z,90.70
2018-06-08T13:49:44.618Z,91.40
2018-06-08T13:52:13.341Z,90.00
2018-06-08T13:54:41.750Z,91.20
2018-06-08T13:57:10.868Z,91.00
2018-06-08T13:59:39.301Z,91.00
2018-06-08T14:02:08.479Z,89.70
2018-06-08T14:04:36.908Z,90.40
2018-06-08T14:07:05.870Z,90.80
2018-06-08T14:09:34.399Z,91.70
2018-06-08T14:12:03.642Z,92.10
2018-06-08T14:14:32.116Z,91.90
2018-06-08T14:17:01.047Z,91.60
2018-06-08T14:19:29.530Z,92.70
2018-06-08T14:22:00.021Z,92.50
2018-06-08T14:24:28.829Z,92.40
2018-06-08T14:26:57.722Z,91.90
2018-06-08T14:29:26.527Z,92.80
2018-06-08T14:31:55.381Z,94.40
2018-06-08T14:34:23.886Z,94.80
2018-06-08T14:36:53.045Z,95.30
2018-06-08T14:39:21.869Z,93.90
2018-06-08T14:41:50.390Z,93.30
2018-06-08T14:44:19.622Z,94.40
2018-06-08T14:46:48.769Z,93.40
2018-06-08T14:49:17.204Z,91.80
2018-06-08T14:51:46.611Z,92.30
2018-06-08T14:54:16.106Z,91.90
2018-06-08T14:56:44.565Z,93.10
2018-06-08T14:59:14.142Z,92.20
2018-06-08T15:01:42.575Z,93.00
2018-06-08T15:04:11.299Z,92.80
2018-06-08T15:06:40.114Z,90.90
2018-06-08T15:09:08.582Z,92.30
2018-06-08T15:11:37.080Z,87.70
2018-06-08T15:14:05.603Z,90.70
2018-06-08T15:16:34.542Z,91.00
2018-06-08T15:19:03.064Z,90.80
2018-06-08T15:21:32.346Z,91.20
2018-06-08T15:24:01.178Z,90.00
2018-06-08T15:26:29.840Z,85.50
2018-06-08T15:28:58.360Z,88.30
2018-06-08T15:31:27.784Z,89.50
2018-06-08T15:36:25.198Z,88.60
2018-06-08T15:38:54.309Z,88.30
2018-06-08T15:41:24.296Z,85.60
2018-06-08T15:43:53.557Z,87.60
2018-06-08T15:46:22.612Z,87.60
2018-06-08T15:48:55.922Z,86.80
2018-06-08T15:51:24.602Z,82.40
2018-06-08T15:53:53.346Z,83.30
2018-06-08T15:56:22.240Z,82.10
2018-06-08T15:58:51.050Z,83.00
2018-06-08T16:01:19.576Z,84.50
2018-06-08T16:03:48.084Z,83.90
2018-06-08T16:06:17.083Z,83.80
2018-06-08T16:08:46.399Z,84.20
2018-06-08T16:11:15.053Z,82.20
2018-06-08T16:13:47.733Z,85.40
2018-06-08T16:16:16.926Z,87.60
2018-06-08T16:18:46.257Z,89.10
2018-06-08T16:21:14.781Z,90.00
2018-06-08T16:23:43.582Z,89.00
2018-06-08T16:26:13.067Z,90.10
2018-06-08T16:28:41.583Z,89.50
2018-06-08T16:31:10.166Z,89.00
2018-06-08T16:33:38.601Z,86.40
2018-06-08T16:36:17.003Z,85.30
2018-06-08T16:38:46.584Z,86.30
2018-06-08T16:41:15.010Z,86.40
2018-06-08T16:43:43.920Z,85.00
2018-06-08T16:46:12.416Z,83.90
2018-06-08T16:48:40.892Z,85.80
2018-06-08T16:51:09.796Z,85.20
2018-06-08T16:53:38.672Z,83.20
2018-06-08T16:56:07.568Z,80.50
2018-06-08T16:58:37.041Z,81.70
2018-06-08T17:01:05.492Z,81.50
2018-06-08T17:03:33.947Z,76.60
2018-06-08T17:06:03.832Z,78.50
2018-06-08T17:08:32.309Z,78.70
2018-06-08T17:11:01.338Z,77.50
2018-06-08T17:13:29.769Z,77.40
2018-06-08T17:15:59.311Z,76.10
2018-06-08T17:18:28.576Z,76.80
2018-06-08T17:20:57.398Z,76.90
2018-06-08T17:36:26.097Z,75.70
2018-06-08T17:38:54.956Z,79.80
2018-06-08T17:41:23.599Z,80.90
2018-06-08T17:43:52.810Z,81.20
2018-06-08T17:46:21.657Z,82.40
2018-06-08T17:48:50.774Z,83.10
2018-06-08T17:51:23.969Z,83.60
2018-06-08T17:53:52.452Z,83.80
2018-06-08T17:56:22.120Z,83.70
2018-06-08T18:01:22.478Z,84.20
2018-06-08T18:03:51.393Z,84.60
2018-06-08T18:06:20.039Z,83.80
2018-06-08T18:08:48.460Z,84.10
2018-06-08T18:11:17.404Z,84.30
2018-06-08T18:13:46.350Z,85.10
2018-06-08T18:16:14.811Z,85.10
2018-06-08T18:18:43.478Z,84.70
2018-06-08T18:21:13.406Z,84.50
2018-06-08T18:23:41.846Z,84.80
2018-06-08T18:26:10.717Z,85.10
2018-06-08T18:28:39.433Z,85.40
2018-06-08T18:31:08.914Z,85.70
2018-06-08T18:33:38.531Z,86.30
2018-06-08T18:36:07.044Z,86.50
2018-06-08T18:38:35.747Z,87.00
2018-06-08T18:41:04.657Z,87.40
2018-06-08T18:43:33.536Z,88.00
2018-06-08T18:46:02.719Z,88.40
2018-06-08T18:48:31.154Z,89.00
2018-06-08T18:51:00.802Z,89.30
2018-06-08T18:53:29.224Z,90.00
2018-06-08T18:55:57.983Z,90.20
2018-06-08T18:58:27.390Z,90.40
2018-06-08T19:00:55.917Z,90.50
2018-06-08T19:03:24.648Z,90.40
2018-06-08T19:05:54.112Z,90.50
2018-06-08T19:08:22.688Z,90.40
2018-06-08T19:10:51.255Z,90.50
2018-06-08T19:13:20.514Z,90.50
2018-06-08T19:15:49.007Z,90.70
2018-06-08T19:18:18.026Z,90.90
2018-06-08T19:20:46.440Z,91.20
2018-06-08T19:23:14.921Z,91.50
2018-06-08T19:25:43.990Z,91.80
2018-06-08T19:28:12.494Z,92.30
2018-06-08T19:30:41.470Z,92.50
2018-06-08T19:33:10.237Z,92.80
2018-06-08T19:35:39.738Z,93.30
2018-06-08T19:38:08.804Z,93.50
2018-06-08T19:40:38.685Z,94.00
2018-06-08T19:43:07.322Z,94.50
2018-06-08T19:45:35.921Z,94.80
2018-06-08T19:48:04.515Z,95.50
2018-06-08T19:50:33.671Z,95.60
2018-06-08T19:53:02.201Z,95.90
2018-06-08T19:55:31.096Z,96.10
2018-06-08T19:57:59.893Z,96.20
2018-06-08T20:00:29.702Z,96.80
2018-06-08T20:02:58.705Z,97.20
2018-06-08T20:05:27.206Z,97.50
2018-06-08T20:07:56.277Z,97.60
2018-06-08T20:10:25.232Z,98.00
2018-06-08T20:12:53.681Z,98.30
2018-06-08T20:17:57.330Z,98.30
2018-06-08T20:20:25.901Z,98.80
2018-06-08T20:22:54.925Z,98.80
2018-06-08T20:25:24.822Z,99.00
2018-06-08T20:27:53.448Z,99.10
2018-06-08T20:30:22.057Z,99.20
2018-06-08T20:32:50.595Z,99.30
2018-06-08T20:35:20.907Z,99.30
2018-06-08T20:37:49.416Z,99.30
2018-06-08T20:40:18.264Z,99.50
2018-06-08T20:42:46.713Z,99.50
2018-06-08T20:47:43.609Z,99.60
2018-06-08T20:50:18.545Z,99.80
2018-06-08T20:52:47.612Z,99.60
2018-06-08T20:55:18.113Z,99.70
2018-06-08T20:57:57.100Z,99.80
2018-06-08T21:00:25.794Z,99.90
2018-06-08T21:02:54.252Z,99.90
2018-06-08T21:05:22.798Z,99.90
2018-06-08T21:07:51.366Z,99.90
2018-06-08T21:10:19.821Z,99.90
2018-06-08T21:12:48.265Z,99.90
2018-06-08T21:15:16.708Z,99.90
2018-06-08T21:17:46.214Z,99.90
2018-06-08T21:20:15.031Z,99.90
2018-06-08T21:22:44.401Z,99.90
2018-06-08T21:25:12.958Z,99.90
2018-06-08T21:27:41.743Z,99.90
2018-06-08T21:30:10.727Z,99.90
2018-06-08T21:32:39.740Z,99.90
2018-06-08T21:35:08.165Z,99.90
2018-06-08T21:37:36.618Z,99.90
2018-06-08T21:40:05.352Z,99.90
2018-06-08T21:42:34.189Z,99.90
2018-06-08T21:45:03.428Z,99.90
2018-06-08T21:47:32.262Z,99.90
2018-06-08T21:59:45.836Z,99.90
2018-06-08T22:02:15.197Z,99.90
2018-06-08T22:04:43.648Z,99.90
2018-06-08T22:07:12.539Z,99.90
2018-06-08T22:09:41.456Z,99.90
2018-06-08T22:12:10.874Z,99.90
2018-06-08T22:14:39.378Z,99.90
2018-06-08T22:17:08.143Z,99.90
2018-06-08T22:19:36.556Z,99.90
2018-06-08T22:22:05.378Z,99.90
2018-06-08T22:37:39.220Z,99.90
2018-06-08T22:40:07.645Z,99.90
2018-06-08T22:42:36.029Z,99.90
2018-06-08T22:45:04.540Z,99.90
2018-06-08T22:47:33.244Z,99.90
2018-06-08T22:50:01.889Z,99.90
2018-06-08T22:52:30.707Z,99.90
2018-06-08T22:54:59.461Z,99.90
2018-06-08T22:57:27.987Z,99.90
2018-06-08T22:59:57.185Z,99.90
2018-06-08T23:02:26.317Z,99.90
2018-06-08T23:04:54.784Z,99.90
2018-06-08T23:07:23.497Z,99.90
2018-06-08T23:09:52.905Z,99.90
2018-06-08T23:12:22.019Z,99.90
2018-06-08T23:14:50.467Z,99.90
2018-06-08T23:17:18.882Z,99.90
2018-06-08T23:19:48.052Z,99.90
2018-06-08T23:22:22.946Z,99.90
2018-06-08T23:24:51.770Z,99.90
2018-06-08T23:27:20.479Z,99.90
2018-06-08T23:29:49.301Z,99.90
2018-06-08T23:32:17.824Z,99.90
2018-06-08T23:34:46.517Z,99.90
2018-06-08T23:37:14.966Z,99.90
2018-06-08T23:39:43.394Z,99.90
2018-06-08T23:42:11.856Z,99.90
2018-06-08T23:44:40.284Z,99.90
2018-06-08T23:47:08.743Z,99.90
2018-06-08T23:49:37.592Z,99.90
2018-06-08T23:52:07.577Z,99.90
2018-06-08T23:54:36.016Z,99.90
2018-06-08T23:57:04.997Z,99.90
2018-06-08T23:59:33.439Z,99.90
